sensor_id;sensor_type;location;lat;lon;timestamp;pressure;altitude;pressure_sealevel;temperature
73685;BMP280;61985;51.070;14.064;2022-10-16T00:00:30;98555.84;;;13.69
73685;BMP280;61985;51.070;14.064;2022-10-16T00:02:55;98548.94;;;13.68
73685;BMP280;61985;51.070;14.064;2022-10-16T00:05:20;98536.44;;;13.61
73685;BMP280;61985;51.070;14.064;2022-10-16T00:07:46;98551.94;;;13.60
73685;BMP280;61985;51.070;14.064;2022-10-16T00:10:11;98546.78;;;13.53
73685;BMP280;61985;51.070;14.064;2022-10-16T00:12:36;98540.19;;;13.54
73685;BMP280;61985;51.070;14.064;2022-10-16T00:15:02;98549.94;;;13.52
73685;BMP280;61985;51.070;14.064;2022-10-16T00:17:29;98550.22;;;13.44
73685;BMP280;61985;51.070;14.064;2022-10-16T00:19:54;98555.81;;;13.50
73685;BMP280;61985;51.070;14.064;2022-10-16T00:22:20;98554.31;;;13.49
73685;BMP280;61985;51.070;14.064;2022-10-16T00:24:45;98563.19;;;13.59
73685;BMP280;61985;51.070;14.064;2022-10-16T00:27:11;98565.72;;;13.53
73685;BMP280;61985;51.070;14.064;2022-10-16T00:29:36;98558.97;;;13.49
73685;BMP280;61985;51.070;14.064;2022-10-16T00:32:01;98573.25;;;13.49
73685;BMP280;61985;51.070;14.064;2022-10-16T00:34:27;98570.41;;;13.53
73685;BMP280;61985;51.070;14.064;2022-10-16T00:36:52;98575.97;;;13.49
73685;BMP280;61985;51.070;14.064;2022-10-16T00:39:17;98566.16;;;13.42
73685;BMP280;61985;51.070;14.064;2022-10-16T00:41:43;98569.44;;;13.37
73685;BMP280;61985;51.070;14.064;2022-10-16T00:47:15;98572.56;;;13.26
73685;BMP280;61985;51.070;14.064;2022-10-16T00:49:42;98570.75;;;13.23
73685;BMP280;61985;51.070;14.064;2022-10-16T00:52:08;98568.91;;;13.20
73685;BMP280;61985;51.070;14.064;2022-10-16T00:54:34;98574.94;;;13.24
73685;BMP280;61985;51.070;14.064;2022-10-16T00:57:03;98575.06;;;13.21
73685;BMP280;61985;51.070;14.064;2022-10-16T01:01:57;98578.66;;;13.18
73685;BMP280;61985;51.070;14.064;2022-10-16T01:04:23;98584.06;;;13.18
73685;BMP280;61985;51.070;14.064;2022-10-16T01:06:52;98576.53;;;13.13
73685;BMP280;61985;51.070;14.064;2022-10-16T01:12:17;98581.56;;;13.23
73685;BMP280;61985;51.070;14.064;2022-10-16T01:17:43;98581.41;;;13.27
73685;BMP280;61985;51.070;14.064;2022-10-16T01:20:17;98579.16;;;13.25
73685;BMP280;61985;51.070;14.064;2022-10-16T01:29:41;98579.53;;;13.37
73685;BMP280;61985;51.070;14.064;2022-10-16T01:31:44;98578.69;;;13.49
73685;BMP280;61985;51.070;14.064;2022-10-16T01:34:20;98579.25;;;13.53
73685;BMP280;61985;51.070;14.064;2022-10-16T01:36:51;98578.03;;;13.45
73685;BMP280;61985;51.070;14.064;2022-10-16T01:39:24;98577.75;;;13.43
73685;BMP280;61985;51.070;14.064;2022-10-16T01:41:55;98586.63;;;13.43
73685;BMP280;61985;51.070;14.064;2022-10-16T01:44:29;98584.78;;;13.40
73685;BMP280;61985;51.070;14.064;2022-10-16T01:46:56;98588.84;;;13.45
73685;BMP280;61985;51.070;14.064;2022-10-16T01:49:26;98591.00;;;13.50
73685;BMP280;61985;51.070;14.064;2022-10-16T01:51:55;98596.72;;;13.52
73685;BMP280;61985;51.070;14.064;2022-10-16T01:54:23;98597.34;;;13.56
73685;BMP280;61985;51.070;14.064;2022-10-16T01:56:52;98599.56;;;13.58
73685;BMP280;61985;51.070;14.064;2022-10-16T01:59:23;98596.13;;;13.57
73685;BMP280;61985;51.070;14.064;2022-10-16T02:01:52;98600.34;;;13.58
73685;BMP280;61985;51.070;14.064;2022-10-16T02:04:27;98602.50;;;13.63
73685;BMP280;61985;51.070;14.064;2022-10-16T02:06:53;98593.72;;;13.59
73685;BMP280;61985;51.070;14.064;2022-10-16T02:09:19;98596.88;;;13.58
73685;BMP280;61985;51.070;14.064;2022-10-16T02:11:45;98596.59;;;13.56
73685;BMP280;61985;51.070;14.064;2022-10-16T02:14:10;98586.50;;;13.56
73685;BMP280;61985;51.070;14.064;2022-10-16T02:16:39;98601.84;;;13.59
73685;BMP280;61985;51.070;14.064;2022-10-16T02:19:06;98605.47;;;13.56
73685;BMP280;61985;51.070;14.064;2022-10-16T02:21:43;98610.88;;;13.56
73685;BMP280;61985;51.070;14.064;2022-10-16T02:29:53;98615.66;;;13.52
73685;BMP280;61985;51.070;14.064;2022-10-16T02:32:26;98622.75;;;13.59
73685;BMP280;61985;51.070;14.064;2022-10-16T02:34:52;98623.94;;;13.58
73685;BMP280;61985;51.070;14.064;2022-10-16T02:37:18;98623.66;;;13.56
73685;BMP280;61985;51.070;14.064;2022-10-16T02:39:44;98622.91;;;13.55
73685;BMP280;61985;51.070;14.064;2022-10-16T02:42:12;98614.47;;;13.53
73685;BMP280;61985;51.070;14.064;2022-10-16T02:44:38;98603.81;;;13.59
73685;BMP280;61985;51.070;14.064;2022-10-16T02:47:03;98609.25;;;13.68
73685;BMP280;61985;51.070;14.064;2022-10-16T02:49:28;98606.41;;;13.72
73685;BMP280;61985;51.070;14.064;2022-10-16T02:51:54;98607.31;;;13.69
73685;BMP280;61985;51.070;14.064;2022-10-16T02:54:19;98608.66;;;13.73
73685;BMP280;61985;51.070;14.064;2022-10-16T02:56:45;98616.22;;;13.78
73685;BMP280;61985;51.070;14.064;2022-10-16T02:59:10;98611.53;;;13.79
73685;BMP280;61985;51.070;14.064;2022-10-16T03:01:35;98614.44;;;13.84
73685;BMP280;61985;51.070;14.064;2022-10-16T03:04:01;98614.13;;;13.92
73685;BMP280;61985;51.070;14.064;2022-10-16T03:06:26;98610.06;;;13.87
73685;BMP280;61985;51.070;14.064;2022-10-16T03:08:51;98605.53;;;13.84
73685;BMP280;61985;51.070;14.064;2022-10-16T03:11:17;98597.72;;;13.86
73685;BMP280;61985;51.070;14.064;2022-10-16T03:13:42;98611.84;;;13.90
73685;BMP280;61985;51.070;14.064;2022-10-16T03:16:07;98609.47;;;13.92
73685;BMP280;61985;51.070;14.064;2022-10-16T03:18:33;98605.56;;;13.93
73685;BMP280;61985;51.070;14.064;2022-10-16T03:20:58;98611.41;;;13.92
73685;BMP280;61985;51.070;14.064;2022-10-16T03:23:24;98606.16;;;13.88
73685;BMP280;61985;51.070;14.064;2022-10-16T03:25:49;98613.22;;;13.85
73685;BMP280;61985;51.070;14.064;2022-10-16T03:28:14;98610.94;;;13.84
73685;BMP280;61985;51.070;14.064;2022-10-16T03:30:40;98619.97;;;13.81
73685;BMP280;61985;51.070;14.064;2022-10-16T03:33:05;98624.94;;;13.82
73685;BMP280;61985;51.070;14.064;2022-10-16T03:35:31;98629.31;;;13.80
73685;BMP280;61985;51.070;14.064;2022-10-16T03:37:57;98626.59;;;13.80
73685;BMP280;61985;51.070;14.064;2022-10-16T03:40:23;98624.19;;;13.82
73685;BMP280;61985;51.070;14.064;2022-10-16T03:42:48;98637.44;;;13.80
73685;BMP280;61985;51.070;14.064;2022-10-16T03:45:14;98628.09;;;13.81
73685;BMP280;61985;51.070;14.064;2022-10-16T03:47:39;98637.00;;;13.81
73685;BMP280;61985;51.070;14.064;2022-10-16T03:50:05;98640.47;;;13.82
73685;BMP280;61985;51.070;14.064;2022-10-16T03:52:30;98639.81;;;13.78
73685;BMP280;61985;51.070;14.064;2022-10-16T03:54:57;98645.88;;;13.82
73685;BMP280;61985;51.070;14.064;2022-10-16T03:57:22;98644.34;;;13.81
73685;BMP280;61985;51.070;14.064;2022-10-16T03:59:48;98645.56;;;13.80
73685;BMP280;61985;51.070;14.064;2022-10-16T04:02:13;98649.47;;;13.79
73685;BMP280;61985;51.070;14.064;2022-10-16T04:04:38;98642.53;;;13.78
73685;BMP280;61985;51.070;14.064;2022-10-16T04:07:04;98640.16;;;13.80
73685;BMP280;61985;51.070;14.064;2022-10-16T04:09:29;98653.25;;;13.81
73685;BMP280;61985;51.070;14.064;2022-10-16T04:11:55;98652.66;;;13.86
73685;BMP280;61985;51.070;14.064;2022-10-16T04:14:20;98647.97;;;13.87
73685;BMP280;61985;51.070;14.064;2022-10-16T04:16:46;98651.91;;;13.86
73685;BMP280;61985;51.070;14.064;2022-10-16T04:19:11;98644.34;;;13.81
73685;BMP280;61985;51.070;14.064;2022-10-16T04:21:36;98639.38;;;13.79
73685;BMP280;61985;51.070;14.064;2022-10-16T04:24:02;98642.53;;;13.78
73685;BMP280;61985;51.070;14.064;2022-10-16T04:26:28;98648.72;;;13.78
73685;BMP280;61985;51.070;14.064;2022-10-16T04:28:53;98648.22;;;13.71
73685;BMP280;61985;51.070;14.064;2022-10-16T04:31:19;98650.31;;;13.66
73685;BMP280;61985;51.070;14.064;2022-10-16T04:33:44;98660.41;;;13.66
73685;BMP280;61985;51.070;14.064;2022-10-16T04:36:10;98668.41;;;13.70
73685;BMP280;61985;51.070;14.064;2022-10-16T04:38:35;98672.28;;;13.69
73685;BMP280;61985;51.070;14.064;2022-10-16T04:41:03;98668.09;;;13.68
73685;BMP280;61985;51.070;14.064;2022-10-16T04:43:28;98669.13;;;13.70
73685;BMP280;61985;51.070;14.064;2022-10-16T04:45:53;98662.81;;;13.73
73685;BMP280;61985;51.070;14.064;2022-10-16T04:48:19;98656.47;;;13.67
73685;BMP280;61985;51.070;14.064;2022-10-16T04:50:45;98656.63;;;13.63
73685;BMP280;61985;51.070;14.064;2022-10-16T04:53:10;98665.94;;;13.62
73685;BMP280;61985;51.070;14.064;2022-10-16T04:55:36;98668.66;;;13.62
73685;BMP280;61985;51.070;14.064;2022-10-16T04:58:02;98670.47;;;13.65
73685;BMP280;61985;51.070;14.064;2022-10-16T05:00:28;98676.66;;;13.66
73685;BMP280;61985;51.070;14.064;2022-10-16T05:02:53;98672.59;;;13.71
73685;BMP280;61985;51.070;14.064;2022-10-16T05:05:18;98678.47;;;13.69
73685;BMP280;61985;51.070;14.064;2022-10-16T05:07:45;98687.78;;;13.68
73685;BMP280;61985;51.070;14.064;2022-10-16T05:10:11;98675.13;;;13.65
73685;BMP280;61985;51.070;14.064;2022-10-16T05:12:36;98658.75;;;13.69
73685;BMP280;61985;51.070;14.064;2022-10-16T05:15:02;98654.84;;;13.70
73685;BMP280;61985;51.070;14.064;2022-10-16T05:17:27;98657.25;;;13.68
73685;BMP280;61985;51.070;14.064;2022-10-16T05:19:52;98657.84;;;13.72
73685;BMP280;61985;51.070;14.064;2022-10-16T05:22:18;98673.84;;;13.79
73685;BMP280;61985;51.070;14.064;2022-10-16T05:24:43;98674.28;;;13.77
73685;BMP280;61985;51.070;14.064;2022-10-16T05:27:10;98679.88;;;13.83
73685;BMP280;61985;51.070;14.064;2022-10-16T05:29:36;98675.06;;;13.87
73685;BMP280;61985;51.070;14.064;2022-10-16T05:32:01;98684.06;;;13.84
73685;BMP280;61985;51.070;14.064;2022-10-16T05:34:27;98680.91;;;13.85
73685;BMP280;61985;51.070;14.064;2022-10-16T05:36:52;98690.69;;;13.83
73685;BMP280;61985;51.070;14.064;2022-10-16T05:39:18;98688.31;;;13.85
73685;BMP280;61985;51.070;14.064;2022-10-16T05:41:44;98682.13;;;13.84
73685;BMP280;61985;51.070;14.064;2022-10-16T05:44:10;98688.91;;;13.80
73685;BMP280;61985;51.070;14.064;2022-10-16T05:46:35;98689.22;;;13.82
73685;BMP280;61985;51.070;14.064;2022-10-16T05:49:01;98696.41;;;13.76
73685;BMP280;61985;51.070;14.064;2022-10-16T05:51:26;98703.31;;;13.77
73685;BMP280;61985;51.070;14.064;2022-10-16T05:53:52;98702.69;;;13.73
73685;BMP280;61985;51.070;14.064;2022-10-16T05:56:17;98707.25;;;13.76
73685;BMP280;61985;51.070;14.064;2022-10-16T05:58:43;98712.78;;;13.72
73685;BMP280;61985;51.070;14.064;2022-10-16T06:01:16;98718.19;;;13.72
73685;BMP280;61985;51.070;14.064;2022-10-16T06:03:42;98708.13;;;13.73
73685;BMP280;61985;51.070;14.064;2022-10-16T06:06:13;98711.00;;;13.78
73685;BMP280;61985;51.070;14.064;2022-10-16T06:08:40;98715.97;;;13.80
73685;BMP280;61985;51.070;14.064;2022-10-16T06:11:08;98734.94;;;13.80
73685;BMP280;61985;51.070;14.064;2022-10-16T06:13:34;98742.78;;;13.87
73685;BMP280;61985;51.070;14.064;2022-10-16T06:16:01;98738.13;;;13.88
73685;BMP280;61985;51.070;14.064;2022-10-16T06:18:27;98741.88;;;13.90
73685;BMP280;61985;51.070;14.064;2022-10-16T06:20:53;98737.53;;;13.93
73685;BMP280;61985;51.070;14.064;2022-10-16T06:23:19;98743.59;;;13.97
73685;BMP280;61985;51.070;14.064;2022-10-16T06:25:45;98735.59;;;14.02
73685;BMP280;61985;51.070;14.064;2022-10-16T06:28:10;98737.31;;;14.09
73685;BMP280;61985;51.070;14.064;2022-10-16T06:30:35;98749.81;;;14.16
73685;BMP280;61985;51.070;14.064;2022-10-16T06:33:01;98749.53;;;14.14
73685;BMP280;61985;51.070;14.064;2022-10-16T06:35:26;98760.41;;;14.23
73685;BMP280;61985;51.070;14.064;2022-10-16T06:37:55;98766.13;;;14.25
73685;BMP280;61985;51.070;14.064;2022-10-16T06:40:20;98774.09;;;14.28
73685;BMP280;61985;51.070;14.064;2022-10-16T06:42:45;98768.84;;;14.34
73685;BMP280;61985;51.070;14.064;2022-10-16T06:45:11;98763.59;;;14.31
73685;BMP280;61985;51.070;14.064;2022-10-16T06:47:36;98772.94;;;14.39
73685;BMP280;61985;51.070;14.064;2022-10-16T06:50:02;98767.69;;;14.44
73685;BMP280;61985;51.070;14.064;2022-10-16T06:52:28;98775.38;;;14.46
73685;BMP280;61985;51.070;14.064;2022-10-16T06:54:54;98772.78;;;14.52
73685;BMP280;61985;51.070;14.064;2022-10-16T06:57:19;98773.72;;;14.58
73685;BMP280;61985;51.070;14.064;2022-10-16T06:59:44;98766.97;;;14.62
73685;BMP280;61985;51.070;14.064;2022-10-16T07:02:10;98789.75;;;14.74
73685;BMP280;61985;51.070;14.064;2022-10-16T07:04:36;98784.31;;;14.74
73685;BMP280;61985;51.070;14.064;2022-10-16T07:07:01;98782.50;;;14.80
73685;BMP280;61985;51.070;14.064;2022-10-16T07:09:27;98793.50;;;14.86
73685;BMP280;61985;51.070;14.064;2022-10-16T07:11:53;98791.09;;;14.88
73685;BMP280;61985;51.070;14.064;2022-10-16T07:16:54;98801.19;;;14.97
73685;BMP280;61985;51.070;14.064;2022-10-16T07:19:20;98799.84;;;15.01
73685;BMP280;61985;51.070;14.064;2022-10-16T07:21:45;98802.44;;;15.05
73685;BMP280;61985;51.070;14.064;2022-10-16T07:24:14;98811.16;;;15.09
73685;BMP280;61985;51.070;14.064;2022-10-16T07:26:40;98825.03;;;15.11
73685;BMP280;61985;51.070;14.064;2022-10-16T07:29:18;98817.34;;;15.10
73685;BMP280;61985;51.070;14.064;2022-10-16T07:31:44;98825.78;;;15.12
73685;BMP280;61985;51.070;14.064;2022-10-16T07:34:11;98825.78;;;15.12
73685;BMP280;61985;51.070;14.064;2022-10-16T07:36:37;98826.53;;;15.12
73685;BMP280;61985;51.070;14.064;2022-10-16T07:39:03;98831.94;;;15.12
73685;BMP280;61985;51.070;14.064;2022-10-16T07:41:29;98838.00;;;15.16
73685;BMP280;61985;51.070;14.064;2022-10-16T07:43:56;98835.56;;;15.18
73685;BMP280;61985;51.070;14.064;2022-10-16T07:46:25;98845.69;;;15.18
73685;BMP280;61985;51.070;14.064;2022-10-16T07:48:51;98843.13;;;15.23
73685;BMP280;61985;51.070;14.064;2022-10-16T07:51:22;98847.06;;;15.22
73685;BMP280;61985;51.070;14.064;2022-10-16T07:53:48;98845.84;;;15.23
73685;BMP280;61985;51.070;14.064;2022-10-16T07:56:15;98853.53;;;15.25
73685;BMP280;61985;51.070;14.064;2022-10-16T07:58:44;98857.00;;;15.25
73685;BMP280;61985;51.070;14.064;2022-10-16T08:01:12;98857.00;;;15.25
73685;BMP280;61985;51.070;14.064;2022-10-16T08:03:41;98863.03;;;15.29
73685;BMP280;61985;51.070;14.064;2022-10-16T08:06:07;98859.09;;;15.31
73685;BMP280;61985;51.070;14.064;2022-10-16T08:08:32;98867.41;;;15.36
73685;BMP280;61985;51.070;14.064;2022-10-16T08:10:58;98860.47;;;15.44
73685;BMP280;61985;51.070;14.064;2022-10-16T08:28:57;98871.03;;;16.22
73685;BMP280;61985;51.070;14.064;2022-10-16T08:31:23;98864.66;;;16.25
73685;BMP280;61985;51.070;14.064;2022-10-16T08:33:49;98850.44;;;16.30
73685;BMP280;61985;51.070;14.064;2022-10-16T08:36:15;98856.00;;;16.36
73685;BMP280;61985;51.070;14.064;2022-10-16T08:38:41;98855.88;;;16.39
73685;BMP280;61985;51.070;14.064;2022-10-16T08:49:18;98859.41;;;16.55
73685;BMP280;61985;51.070;14.064;2022-10-16T08:51:44;98865.75;;;16.61
73685;BMP280;61985;51.070;14.064;2022-10-16T08:56:37;98884.53;;;16.73
73685;BMP280;61985;51.070;14.064;2022-10-16T08:59:06;98874.72;;;16.76
73685;BMP280;61985;51.070;14.064;2022-10-16T09:01:38;98888.88;;;16.80
73685;BMP280;61985;51.070;14.064;2022-10-16T09:04:32;98874.66;;;16.85
73685;BMP280;61985;51.070;14.064;2022-10-16T09:09:54;98878.06;;;16.71
73685;BMP280;61985;51.070;14.064;2022-10-16T09:12:38;98881.00;;;16.58
73685;BMP280;61985;51.070;14.064;2022-10-16T09:15:28;98875.25;;;16.56
73685;BMP280;61985;51.070;14.064;2022-10-16T09:20:54;98866.00;;;16.63
73685;BMP280;61985;51.070;14.064;2022-10-16T09:23:27;98865.41;;;16.59
73685;BMP280;61985;51.070;14.064;2022-10-16T09:25:55;98860.09;;;16.64
73685;BMP280;61985;51.070;14.064;2022-10-16T09:28:30;98864.22;;;16.60
73685;BMP280;61985;51.070;14.064;2022-10-16T09:30:58;98859.25;;;16.82
73685;BMP280;61985;51.070;14.064;2022-10-16T09:33:32;98858.19;;;17.04
73685;BMP280;61985;51.070;14.064;2022-10-16T09:35:59;98866.22;;;16.98
73685;BMP280;61985;51.070;14.064;2022-10-16T09:38:30;98863.25;;;17.11
73685;BMP280;61985;51.070;14.064;2022-10-16T09:40:58;98880.59;;;17.23
73685;BMP280;61985;51.070;14.064;2022-10-16T09:43:26;98880.38;;;17.26
73685;BMP280;61985;51.070;14.064;2022-10-16T09:46:04;98884.84;;;17.39
73685;BMP280;61985;51.070;14.064;2022-10-16T09:51:03;98887.94;;;17.46
73685;BMP280;61985;51.070;14.064;2022-10-16T10:46:02;98921.56;;;19.09
73685;BMP280;61985;51.070;14.064;2022-10-16T10:48:51;98935.50;;;19.31
73685;BMP280;61985;51.070;14.064;2022-10-16T10:51:27;98926.88;;;19.64
73685;BMP280;61985;51.070;14.064;2022-10-16T10:54:15;98926.91;;;19.70
73685;BMP280;61985;51.070;14.064;2022-10-16T10:56:58;98920.16;;;19.65
73685;BMP280;61985;51.070;14.064;2022-10-16T11:05:08;98929.38;;;19.94
73685;BMP280;61985;51.070;14.064;2022-10-16T11:11:03;98920.25;;;20.51
73685;BMP280;61985;51.070;14.064;2022-10-16T11:26:26;98935.66;;;20.06
73685;BMP280;61985;51.070;14.064;2022-10-16T11:28:55;98936.47;;;19.80
73685;BMP280;61985;51.070;14.064;2022-10-16T11:34:27;98932.81;;;19.37
73685;BMP280;61985;51.070;14.064;2022-10-16T11:37:09;98932.50;;;19.29
73685;BMP280;61985;51.070;14.064;2022-10-16T11:39:38;98939.31;;;19.19
73685;BMP280;61985;51.070;14.064;2022-10-16T11:42:16;98940.69;;;19.29
73685;BMP280;61985;51.070;14.064;2022-10-16T11:45:00;98928.97;;;19.29
73685;BMP280;61985;51.070;14.064;2022-10-16T11:50:14;98931.41;;;19.21
73685;BMP280;61985;51.070;14.064;2022-10-16T11:55:35;98935.81;;;19.39
73685;BMP280;61985;51.070;14.064;2022-10-16T11:58:08;98933.78;;;19.60
73685;BMP280;61985;51.070;14.064;2022-10-16T12:11:32;98943.25;;;20.22
73685;BMP280;61985;51.070;14.064;2022-10-16T12:19:14;98941.03;;;19.95
73685;BMP280;61985;51.070;14.064;2022-10-16T12:21:41;98940.19;;;19.83
73685;BMP280;61985;51.070;14.064;2022-10-16T12:29:38;98952.94;;;19.92
73685;BMP280;61985;51.070;14.064;2022-10-16T12:32:31;98956.72;;;20.32
73685;BMP280;61985;51.070;14.064;2022-10-16T12:34:59;98957.09;;;20.50
73685;BMP280;61985;51.070;14.064;2022-10-16T12:42:36;98951.31;;;20.05
73685;BMP280;61985;51.070;14.064;2022-10-16T12:45:22;98950.91;;;19.86
73685;BMP280;61985;51.070;14.064;2022-10-16T12:47:51;98957.56;;;19.80
73685;BMP280;61985;51.070;14.064;2022-10-16T12:52:54;98954.88;;;19.59
73685;BMP280;61985;51.070;14.064;2022-10-16T12:55:22;98959.72;;;19.70
73685;BMP280;61985;51.070;14.064;2022-10-16T14:33:35;99031.91;;;18.16
73685;BMP280;61985;51.070;14.064;2022-10-16T14:38:36;99030.03;;;18.08
73685;BMP280;61985;51.070;14.064;2022-10-16T14:41:03;99034.81;;;17.98
73685;BMP280;61985;51.070;14.064;2022-10-16T14:45:57;99024.84;;;17.95
73685;BMP280;61985;51.070;14.064;2022-10-16T14:48:23;99035.16;;;17.91
73685;BMP280;61985;51.070;14.064;2022-10-16T14:50:49;99028.50;;;17.92
73685;BMP280;61985;51.070;14.064;2022-10-16T14:53:15;99036.69;;;17.92
73685;BMP280;61985;51.070;14.064;2022-10-16T14:55:41;99044.88;;;17.92
73685;BMP280;61985;51.070;14.064;2022-10-16T14:58:19;99050.00;;;17.90
73685;BMP280;61985;51.070;14.064;2022-10-16T15:00:45;99051.59;;;17.82
73685;BMP280;61985;51.070;14.064;2022-10-16T15:03:10;99054.53;;;17.78
73685;BMP280;61985;51.070;14.064;2022-10-16T15:05:36;99050.28;;;17.77
73685;BMP280;61985;51.070;14.064;2022-10-16T15:08:02;99053.75;;;17.77
73685;BMP280;61985;51.070;14.064;2022-10-16T15:10:28;99062.22;;;17.80
73685;BMP280;61985;51.070;14.064;2022-10-16T15:12:54;99061.94;;;17.77
73685;BMP280;61985;51.070;14.064;2022-10-16T15:15:28;99057.13;;;17.72
73685;BMP280;61985;51.070;14.064;2022-10-16T15:17:56;99065.31;;;17.72
73685;BMP280;61985;51.070;14.064;2022-10-16T15:20:26;99063.50;;;17.69
73685;BMP280;61985;51.070;14.064;2022-10-16T15:22:52;99061.25;;;17.68
73685;BMP280;61985;51.070;14.064;2022-10-16T15:25:31;99060.97;;;17.66
73685;BMP280;61985;51.070;14.064;2022-10-16T15:27:58;99061.13;;;17.62
73685;BMP280;61985;51.070;14.064;2022-10-16T15:30:23;99062.72;;;17.54
73685;BMP280;61985;51.070;14.064;2022-10-16T15:32:49;99065.59;;;17.50
73685;BMP280;61985;51.070;14.064;2022-10-16T15:35:14;99066.09;;;17.49
73685;BMP280;61985;51.070;14.064;2022-10-16T15:37:50;99075.16;;;17.46
73685;BMP280;61985;51.070;14.064;2022-10-16T15:40:17;99082.16;;;17.38
73685;BMP280;61985;51.070;14.064;2022-10-16T15:42:43;99087.97;;;17.30
73685;BMP280;61985;51.070;14.064;2022-10-16T15:45:10;99090.28;;;17.23
73685;BMP280;61985;51.070;14.064;2022-10-16T15:47:36;99087.13;;;17.15
73685;BMP280;61985;51.070;14.064;2022-10-16T15:50:01;99090.94;;;17.08
73685;BMP280;61985;51.070;14.064;2022-10-16T15:52:26;99087.16;;;17.06
73685;BMP280;61985;51.070;14.064;2022-10-16T15:54:54;99099.59;;;17.07
73685;BMP280;61985;51.070;14.064;2022-10-16T15:57:19;99096.28;;;17.03
73685;BMP280;61985;51.070;14.064;2022-10-16T15:59:44;99098.69;;;17.01
73685;BMP280;61985;51.070;14.064;2022-10-16T16:02:10;99096.41;;;16.99
73685;BMP280;61985;51.070;14.064;2022-10-16T16:04:35;99104.44;;;16.93
73685;BMP280;61985;51.070;14.064;2022-10-16T16:07:01;99108.41;;;16.83
73685;BMP280;61985;51.070;14.064;2022-10-16T16:09:28;99112.97;;;16.77
73685;BMP280;61985;51.070;14.064;2022-10-16T16:11:54;99112.22;;;16.77
73685;BMP280;61985;51.070;14.064;2022-10-16T16:14:19;99112.53;;;16.69
73685;BMP280;61985;51.070;14.064;2022-10-16T16:16:44;99107.72;;;16.64
73685;BMP280;61985;51.070;14.064;2022-10-16T16:19:10;99103.47;;;16.54
73685;BMP280;61985;51.070;14.064;2022-10-16T16:21:35;99119.97;;;16.41
73685;BMP280;61985;51.070;14.064;2022-10-16T16:24:01;99134.19;;;16.36
73685;BMP280;61985;51.070;14.064;2022-10-16T16:26:33;99129.94;;;16.35
73685;BMP280;61985;51.070;14.064;2022-10-16T16:29:03;99133.28;;;16.39
73685;BMP280;61985;51.070;14.064;2022-10-16T16:31:30;99138.09;;;16.26
73685;BMP280;61985;51.070;14.064;2022-10-16T16:33:56;99140.06;;;16.16
73685;BMP280;61985;51.070;14.064;2022-10-16T16:36:22;99131.91;;;16.07
73685;BMP280;61985;51.070;14.064;2022-10-16T16:38:47;99134.28;;;15.96
73685;BMP280;61985;51.070;14.064;2022-10-16T16:41:24;99147.09;;;15.86
73685;BMP280;61985;51.070;14.064;2022-10-16T16:43:51;99157.22;;;15.85
73685;BMP280;61985;51.070;14.064;2022-10-16T16:46:16;99157.03;;;15.70
73685;BMP280;61985;51.070;14.064;2022-10-16T16:48:43;99152.78;;;15.60
73685;BMP280;61985;51.070;14.064;2022-10-16T16:51:13;99154.13;;;15.56
73685;BMP280;61985;51.070;14.064;2022-10-16T16:53:42;99155.59;;;15.47
73685;BMP280;61985;51.070;14.064;2022-10-16T16:56:07;99163.53;;;15.33
73685;BMP280;61985;51.070;14.064;2022-10-16T16:58:33;99166.94;;;15.24
73685;BMP280;61985;51.070;14.064;2022-10-16T17:00:59;99173.41;;;15.17
73685;BMP280;61985;51.070;14.064;2022-10-16T17:03:27;99179.84;;;15.11
73685;BMP280;61985;51.070;14.064;2022-10-16T17:06:02;99165.78;;;15.03
73685;BMP280;61985;51.070;14.064;2022-10-16T17:08:27;99174.72;;;14.91
73685;BMP280;61985;51.070;14.064;2022-10-16T17:10:54;99174.88;;;14.87
73685;BMP280;61985;51.070;14.064;2022-10-16T17:13:24;99178.47;;;14.84
73685;BMP280;61985;51.070;14.064;2022-10-16T17:15:50;99187.94;;;14.79
73685;BMP280;61985;51.070;14.064;2022-10-16T17:18:16;99200.41;;;14.77
73685;BMP280;61985;51.070;14.064;2022-10-16T17:20:42;99201.41;;;14.70
73685;BMP280;61985;51.070;14.064;2022-10-16T17:23:09;99198.84;;;14.54
73685;BMP280;61985;51.070;14.064;2022-10-16T17:25:39;99208.22;;;14.40
73685;BMP280;61985;51.070;14.064;2022-10-16T17:28:05;99202.31;;;14.32
73685;BMP280;61985;51.070;14.064;2022-10-16T17:30:31;99201.94;;;14.43
73685;BMP280;61985;51.070;14.064;2022-10-16T17:32:58;99205.09;;;14.28
73685;BMP280;61985;51.070;14.064;2022-10-16T17:35:24;99202.53;;;14.25
73685;BMP280;61985;51.070;14.064;2022-10-16T17:37:51;99207.53;;;14.14
73685;BMP280;61985;51.070;14.064;2022-10-16T17:40:17;99203.06;;;14.07
73685;BMP280;61985;51.070;14.064;2022-10-16T17:42:43;99217.72;;;14.10
73685;BMP280;61985;51.070;14.064;2022-10-16T17:45:08;99210.69;;;14.12
73685;BMP280;61985;51.070;14.064;2022-10-16T17:47:34;99227.28;;;14.01
73685;BMP280;61985;51.070;14.064;2022-10-16T17:49:59;99221.50;;;13.86
73685;BMP280;61985;51.070;14.064;2022-10-16T17:52:24;99211.97;;;13.95
73685;BMP280;61985;51.070;14.064;2022-10-16T17:54:50;99232.22;;;13.90
73685;BMP280;61985;51.070;14.064;2022-10-16T17:57:18;99220.19;;;13.78
73685;BMP280;61985;51.070;14.064;2022-10-16T17:59:44;99218.34;;;13.62
73685;BMP280;61985;51.070;14.064;2022-10-16T18:02:10;99227.44;;;13.69
73685;BMP280;61985;51.070;14.064;2022-10-16T18:04:35;99226.13;;;13.60
73685;BMP280;61985;51.070;14.064;2022-10-16T18:07:01;99230.16;;;13.56
73685;BMP280;61985;51.070;14.064;2022-10-16T18:09:27;99237.53;;;13.68
73685;BMP280;61985;51.070;14.064;2022-10-16T18:11:53;99242.78;;;13.46
73685;BMP280;61985;51.070;14.064;2022-10-16T18:14:26;99247.38;;;13.49
73685;BMP280;61985;51.070;14.064;2022-10-16T18:16:51;99255.53;;;13.45
73685;BMP280;61985;51.070;14.064;2022-10-16T18:19:18;99259.34;;;13.35
73685;BMP280;61985;51.070;14.064;2022-10-16T18:21:44;99262.56;;;13.30
73685;BMP280;61985;51.070;14.064;2022-10-16T18:24:09;99258.00;;;13.27
73685;BMP280;61985;51.070;14.064;2022-10-16T18:26:35;99268.59;;;13.21
73685;BMP280;61985;51.070;14.064;2022-10-16T18:29:01;99279.84;;;13.20
73685;BMP280;61985;51.070;14.064;2022-10-16T18:31:27;99277.72;;;13.11